sensor_id;sensor_type;location;lat;lon;timestamp;temperature;humidity
7455;HTU21D;3769;51.208;4.454;2024-01-30T00:03:00;9;97.6
7455;HTU21D;3769;51.208;4.454;2024-01-30T00:08:00;9.1;97.6
7455;HTU21D;3769;51.208;4.454;2024-01-30T00:13:00;9.1;97.6
7455;HTU21D;3769;51.208;4.454;2024-01-30T00:18:00;9.2;97.6
7455;HTU21D;3769;51.208;4.454;2024-01-30T00:23:00;9.2;97.6
7455;HTU21D;3769;51.208;4.454;2024-01-30T00:28:00;9.2;97.6
7455;HTU21D;3769;51.208;4.454;2024-01-30T00:33:00;9.3;97.6
7455;HTU21D;3769;51.208;4.454;2024-01-30T00:38:00;9.3;97.7
7455;HTU21D;3769;51.208;4.454;2024-01-30T00:43:00;9.4;97.7
7455;HTU21D;3769;51.208;4.454;2024-01-30T00:48:00;9.4;97.7
7455;HTU21D;3769;51.208;4.454;2024-01-30T00:53:00;9.4;97.7
7455;HTU21D;3769;51.208;4.454;2024-01-30T00:58:00;9.4;97.7
7455;HTU21D;3769;51.208;4.454;2024-01-30T01:03:00;9.4;97.7
7455;HTU21D;3769;51.208;4.454;2024-01-30T01:08:00;9.4;97.7
7455;HTU21D;3769;51.208;4.454;2024-01-30T01:13:00;9.4;97.7
7455;HTU21D;3769;51.208;4.454;2024-01-30T01:18:00;9.3;97.6
7455;HTU21D;3769;51.208;4.454;2024-01-30T01:23:00;9.3;97.6
7455;HTU21D;3769;51.208;4.454;2024-01-30T01:28:00;9.3;97.6
7455;HTU21D;3769;51.208;4.454;2024-01-30T01:33:00;9.3;97.7
7455;HTU21D;3769;51.208;4.454;2024-01-30T01:38:00;9.3;97.6
7455;HTU21D;3769;51.208;4.454;2024-01-30T01:43:02;9.3;97.6
7455;HTU21D;3769;51.208;4.454;2024-01-30T01:48:00;9.4;97.7
7455;HTU21D;3769;51.208;4.454;2024-01-30T01:53:00;9.3;97.6
7455;HTU21D;3769;51.208;4.454;2024-01-30T01:58:00;9.3;97.6
7455;HTU21D;3769;51.208;4.454;2024-01-30T02:03:00;9.2;97.6
7455;HTU21D;3769;51.208;4.454;2024-01-30T02:08:00;9.1;97.6
7455;HTU21D;3769;51.208;4.454;2024-01-30T02:13:00;9.1;97.6
7455;HTU21D;3769;51.208;4.454;2024-01-30T02:18:00;9;97.6
7455;HTU21D;3769;51.208;4.454;2024-01-30T02:23:00;8.9;97.6
7455;HTU21D;3769;51.208;4.454;2024-01-30T02:28:00;9;97.6
7455;HTU21D;3769;51.208;4.454;2024-01-30T02:33:00;9;97.6
7455;HTU21D;3769;51.208;4.454;2024-01-30T02:38:00;8.9;97.6
7455;HTU21D;3769;51.208;4.454;2024-01-30T02:43:01;9;97.6
7455;HTU21D;3769;51.208;4.454;2024-01-30T02:48:00;9;97.6
7455;HTU21D;3769;51.208;4.454;2024-01-30T02:53:00;9;97.6
7455;HTU21D;3769;51.208;4.454;2024-01-30T02:58:00;9;97.6
7455;HTU21D;3769;51.208;4.454;2024-01-30T03:03:00;9.1;97.6
7455;HTU21D;3769;51.208;4.454;2024-01-30T03:08:00;9.1;97.6
7455;HTU21D;3769;51.208;4.454;2024-01-30T03:13:00;9.2;97.6
7455;HTU21D;3769;51.208;4.454;2024-01-30T03:18:00;9.2;97.6
7455;HTU21D;3769;51.208;4.454;2024-01-30T03:23:00;9.3;97.7
7455;HTU21D;3769;51.208;4.454;2024-01-30T03:28:00;9.4;97.7
7455;HTU21D;3769;51.208;4.454;2024-01-30T03:33:00;9.5;97.7
7455;HTU21D;3769;51.208;4.454;2024-01-30T03:38:00;9.6;97.7
7455;HTU21D;3769;51.208;4.454;2024-01-30T03:43:00;9.6;97.7
7455;HTU21D;3769;51.208;4.454;2024-01-30T03:48:00;9.6;97.7
7455;HTU21D;3769;51.208;4.454;2024-01-30T03:53:00;9.7;97.7
7455;HTU21D;3769;51.208;4.454;2024-01-30T03:58:00;9.7;97.7
7455;HTU21D;3769;51.208;4.454;2024-01-30T04:03:00;9.7;97.7
7455;HTU21D;3769;51.208;4.454;2024-01-30T04:08:00;9.7;97.7
7455;HTU21D;3769;51.208;4.454;2024-01-30T04:13:00;9.7;97.7
7455;HTU21D;3769;51.208;4.454;2024-01-30T04:18:00;9.7;97.7
7455;HTU21D;3769;51.208;4.454;2024-01-30T04:23:00;9.7;97.7
7455;HTU21D;3769;51.208;4.454;2024-01-30T04:28:00;9.8;97.7
7455;HTU21D;3769;51.208;4.454;2024-01-30T04:33:00;9.8;97.7
7455;HTU21D;3769;51.208;4.454;2024-01-30T04:38:00;9.8;97.7
7455;HTU21D;3769;51.208;4.454;2024-01-30T04:43:00;9.8;97.7
7455;HTU21D;3769;51.208;4.454;2024-01-30T04:48:00;9.8;97.7
7455;HTU21D;3769;51.208;4.454;2024-01-30T04:53:00;9.8;97.7
7455;HTU21D;3769;51.208;4.454;2024-01-30T04:58:00;9.8;97.7
7455;HTU21D;3769;51.208;4.454;2024-01-30T05:03:00;9.8;97.7
7455;HTU21D;3769;51.208;4.454;2024-01-30T05:08:00;9.9;97.7
7455;HTU21D;3769;51.208;4.454;2024-01-30T05:13:00;9.9;97.7
7455;HTU21D;3769;51.208;4.454;2024-01-30T05:18:00;9.9;97.7
7455;HTU21D;3769;51.208;4.454;2024-01-30T05:23:00;9.9;97.7
7455;HTU21D;3769;51.208;4.454;2024-01-30T05:28:00;9.9;97.7
7455;HTU21D;3769;51.208;4.454;2024-01-30T05:33:00;9.9;97.7
7455;HTU21D;3769;51.208;4.454;2024-01-30T05:38:00;9.9;97.7
7455;HTU21D;3769;51.208;4.454;2024-01-30T05:43:00;9.9;97.7
7455;HTU21D;3769;51.208;4.454;2024-01-30T05:48:00;9.9;97.7
7455;HTU21D;3769;51.208;4.454;2024-01-30T05:53:00;10;97.7
7455;HTU21D;3769;51.208;4.454;2024-01-30T05:58:00;9.9;97.7
7455;HTU21D;3769;51.208;4.454;2024-01-30T06:03:00;10.1;97.8
7455;HTU21D;3769;51.208;4.454;2024-01-30T06:08:01;10.1;97.8
7455;HTU21D;3769;51.208;4.454;2024-01-30T06:13:00;10;97.7
7455;HTU21D;3769;51.208;4.454;2024-01-30T06:18:00;10;97.7
7455;HTU21D;3769;51.208;4.454;2024-01-30T06:23:00;10;97.7
7455;HTU21D;3769;51.208;4.454;2024-01-30T06:28:00;9.9;97.7
7455;HTU21D;3769;51.208;4.454;2024-01-30T06:33:00;10.1;97.8
7455;HTU21D;3769;51.208;4.454;2024-01-30T06:38:00;10.1;97.8
7455;HTU21D;3769;51.208;4.454;2024-01-30T06:43:00;10.1;97.8
7455;HTU21D;3769;51.208;4.454;2024-01-30T06:48:00;10.2;97.8
7455;HTU21D;3769;51.208;4.454;2024-01-30T06:53:00;10.2;97.8
7455;HTU21D;3769;51.208;4.454;2024-01-30T06:58:00;10.2;97.8
7455;HTU21D;3769;51.208;4.454;2024-01-30T07:03:00;10.2;97.8
7455;HTU21D;3769;51.208;4.454;2024-01-30T07:08:00;10.3;97.8
7455;HTU21D;3769;51.208;4.454;2024-01-30T07:13:00;10.3;97.8
7455;HTU21D;3769;51.208;4.454;2024-01-30T07:18:00;10.3;97.8
7455;HTU21D;3769;51.208;4.454;2024-01-30T07:23:00;10.3;97.8
7455;HTU21D;3769;51.208;4.454;2024-01-30T07:28:00;10.4;97.8
7455;HTU21D;3769;51.208;4.454;2024-01-30T07:33:00;10.4;97.8
7455;HTU21D;3769;51.208;4.454;2024-01-30T07:38:00;10.4;97.8
7455;HTU21D;3769;51.208;4.454;2024-01-30T07:43:00;10.5;97.8
7455;HTU21D;3769;51.208;4.454;2024-01-30T07:48:00;10.5;97.8
7455;HTU21D;3769;51.208;4.454;2024-01-30T07:53:00;10.4;97.8
7455;HTU21D;3769;51.208;4.454;2024-01-30T07:58:00;10.3;97.8
7455;HTU21D;3769;51.208;4.454;2024-01-30T08:03:00;10.4;97.8
7455;HTU21D;3769;51.208;4.454;2024-01-30T08:08:00;10.5;97.8
7455;HTU21D;3769;51.208;4.454;2024-01-30T08:13:00;10.5;97.8
7455;HTU21D;3769;51.208;4.454;2024-01-30T08:18:00;10.6;97.8
7455;HTU21D;3769;51.208;4.454;2024-01-30T08:23:00;10.6;97.8
7455;HTU21D;3769;51.208;4.454;2024-01-30T08:28:00;10.6;97.8
7455;HTU21D;3769;51.208;4.454;2024-01-30T08:33:00;10.6;97.8
7455;HTU21D;3769;51.208;4.454;2024-01-30T08:38:00;10.6;97.8
7455;HTU21D;3769;51.208;4.454;2024-01-30T08:43:00;10.6;97.8
7455;HTU21D;3769;51.208;4.454;2024-01-30T08:48:00;10.8;97.9
7455;HTU21D;3769;51.208;4.454;2024-01-30T08:53:00;10.8;97.9
7455;HTU21D;3769;51.208;4.454;2024-01-30T08:58:00;10.8;97.9
7455;HTU21D;3769;51.208;4.454;2024-01-30T09:03:00;10.6;97.8
7455;HTU21D;3769;51.208;4.454;2024-01-30T09:08:00;10.7;97.9
7455;HTU21D;3769;51.208;4.454;2024-01-30T09:13:00;10.8;97.9
7455;HTU21D;3769;51.208;4.454;2024-01-30T09:18:00;10.7;97.9
7455;HTU21D;3769;51.208;4.454;2024-01-30T09:23:00;10.8;97.9
7455;HTU21D;3769;51.208;4.454;2024-01-30T09:28:00;10.9;97.9
7455;HTU21D;3769;51.208;4.454;2024-01-30T09:33:00;10.8;97.9
7455;HTU21D;3769;51.208;4.454;2024-01-30T09:38:00;11;97.9
7455;HTU21D;3769;51.208;4.454;2024-01-30T09:43:00;10.9;97.9
7455;HTU21D;3769;51.208;4.454;2024-01-30T09:48:00;10.9;97.9
7455;HTU21D;3769;51.208;4.454;2024-01-30T09:53:00;10.9;97.9
7455;HTU21D;3769;51.208;4.454;2024-01-30T09:58:00;11.1;97.9
7455;HTU21D;3769;51.208;4.454;2024-01-30T10:03:00;11.1;97.9
7455;HTU21D;3769;51.208;4.454;2024-01-30T10:08:00;11.1;97.9
7455;HTU21D;3769;51.208;4.454;2024-01-30T10:13:00;11.2;97.9
7455;HTU21D;3769;51.208;4.454;2024-01-30T10:18:00;11;97.9
7455;HTU21D;3769;51.208;4.454;2024-01-30T10:23:00;11;97.9
7455;HTU21D;3769;51.208;4.454;2024-01-30T10:28:00;11.1;97.9
7455;HTU21D;3769;51.208;4.454;2024-01-30T10:33:00;11;97.9
7455;HTU21D;3769;51.208;4.454;2024-01-30T10:38:00;10.8;97.9
7455;HTU21D;3769;51.208;4.454;2024-01-30T10:43:01;10.9;97.9
7455;HTU21D;3769;51.208;4.454;2024-01-30T10:48:00;10.9;97.9
7455;HTU21D;3769;51.208;4.454;2024-01-30T10:53:00;10.8;97.9
7455;HTU21D;3769;51.208;4.454;2024-01-30T10:58:00;10.6;97.8
7455;HTU21D;3769;51.208;4.454;2024-01-30T11:03:00;10.6;97.8
7455;HTU21D;3769;51.208;4.454;2024-01-30T11:08:10;10.5;97.8
7455;HTU21D;3769;51.208;4.454;2024-01-30T11:13:09;10.5;97.8
7455;HTU21D;3769;51.208;4.454;2024-01-30T11:18:00;10.9;97.9
7455;HTU21D;3769;51.208;4.454;2024-01-30T11:23:00;11.1;97.9
7455;HTU21D;3769;51.208;4.454;2024-01-30T11:28:00;11.1;97.9
7455;HTU21D;3769;51.208;4.454;2024-01-30T11:33:02;11.3;97.9
7455;HTU21D;3769;51.208;4.454;2024-01-30T11:38:00;11.3;97.9
7455;HTU21D;3769;51.208;4.454;2024-01-30T11:43:01;11.3;98
7455;HTU21D;3769;51.208;4.454;2024-01-30T11:48:00;11.4;98
7455;HTU21D;3769;51.208;4.454;2024-01-30T11:53:00;11.2;97.9
7455;HTU21D;3769;51.208;4.454;2024-01-30T11:58:00;10.9;97.9
7455;HTU21D;3769;51.208;4.454;2024-01-30T12:03:00;10.9;97.9
7455;HTU21D;3769;51.208;4.454;2024-01-30T12:08:00;11;97.9
7455;HTU21D;3769;51.208;4.454;2024-01-30T12:13:00;11;97.9
7455;HTU21D;3769;51.208;4.454;2024-01-30T12:18:04;11;97.9
7455;HTU21D;3769;51.208;4.454;2024-01-30T12:23:00;11;97.9
7455;HTU21D;3769;51.208;4.454;2024-01-30T12:28:00;11;97.9
7455;HTU21D;3769;51.208;4.454;2024-01-30T12:33:00;10.9;97.9
7455;HTU21D;3769;51.208;4.454;2024-01-30T12:38:00;11;97.9
7455;HTU21D;3769;51.208;4.454;2024-01-30T12:43:00;11;97.9
7455;HTU21D;3769;51.208;4.454;2024-01-30T12:48:00;10.8;97.9
7455;HTU21D;3769;51.208;4.454;2024-01-30T12:53:00;10.9;97.9
7455;HTU21D;3769;51.208;4.454;2024-01-30T12:58:00;10.7;97.9
7455;HTU21D;3769;51.208;4.454;2024-01-30T13:03:00;10.5;97.8
7455;HTU21D;3769;51.208;4.454;2024-01-30T13:08:00;10.4;97.8
7455;HTU21D;3769;51.208;4.454;2024-01-30T13:13:00;10.4;97.8
7455;HTU21D;3769;51.208;4.454;2024-01-30T13:18:00;10.4;97.8
7455;HTU21D;3769;51.208;4.454;2024-01-30T13:23:00;10.4;97.8
7455;HTU21D;3769;51.208;4.454;2024-01-30T13:28:00;10.2;97.8
7455;HTU21D;3769;51.208;4.454;2024-01-30T13:33:00;10;97.8
7455;HTU21D;3769;51.208;4.454;2024-01-30T13:38:00;10;97.7
7455;HTU21D;3769;51.208;4.454;2024-01-30T13:43:00;9.9;97.7
7455;HTU21D;3769;51.208;4.454;2024-01-30T13:48:00;9.8;97.7
7455;HTU21D;3769;51.208;4.454;2024-01-30T13:53:01;9.8;97.7
7455;HTU21D;3769;51.208;4.454;2024-01-30T13:58:00;9.7;97.7
7455;HTU21D;3769;51.208;4.454;2024-01-30T14:03:00;9.8;97.7
7455;HTU21D;3769;51.208;4.454;2024-01-30T14:08:00;9.6;97.7
7455;HTU21D;3769;51.208;4.454;2024-01-30T14:13:00;9.5;97.7
7455;HTU21D;3769;51.208;4.454;2024-01-30T14:18:00;9.4;97.7
7455;HTU21D;3769;51.208;4.454;2024-01-30T14:23:00;9.3;97.7
7455;HTU21D;3769;51.208;4.454;2024-01-30T14:28:00;9.4;97.7
7455;HTU21D;3769;51.208;4.454;2024-01-30T14:33:00;9.6;97.7
7455;HTU21D;3769;51.208;4.454;2024-01-30T14:38:00;9.4;97.7
7455;HTU21D;3769;51.208;4.454;2024-01-30T14:43:00;9.4;97.7
7455;HTU21D;3769;51.208;4.454;2024-01-30T14:48:00;9.5;97.7
7455;HTU21D;3769;51.208;4.454;2024-01-30T14:53:00;9.5;97.7
7455;HTU21D;3769;51.208;4.454;2024-01-30T14:58:00;9.5;97.7
7455;HTU21D;3769;51.208;4.454;2024-01-30T15:03:00;9.3;97.6
7455;HTU21D;3769;51.208;4.454;2024-01-30T15:08:00;9.2;97.6
7455;HTU21D;3769;51.208;4.454;2024-01-30T15:13:00;9.2;97.6
7455;HTU21D;3769;51.208;4.454;2024-01-30T15:18:00;9.2;97.6
7455;HTU21D;3769;51.208;4.454;2024-01-30T15:23:00;9.1;97.6
7455;HTU21D;3769;51.208;4.454;2024-01-30T15:28:00;9.1;97.6
7455;HTU21D;3769;51.208;4.454;2024-01-30T15:33:00;9;97.6
7455;HTU21D;3769;51.208;4.454;2024-01-30T15:38:00;9.1;97.6
7455;HTU21D;3769;51.208;4.454;2024-01-30T15:43:00;9;97.6
7455;HTU21D;3769;51.208;4.454;2024-01-30T15:48:00;9;97.6
7455;HTU21D;3769;51.208;4.454;2024-01-30T15:53:00;8.9;97.6
7455;HTU21D;3769;51.208;4.454;2024-01-30T15:58:00;9;97.6
7455;HTU21D;3769;51.208;4.454;2024-01-30T16:03:00;8.9;97.6
7455;HTU21D;3769;51.208;4.454;2024-01-30T16:08:00;9;97.6
7455;HTU21D;3769;51.208;4.454;2024-01-30T16:13:00;8.9;97.6
7455;HTU21D;3769;51.208;4.454;2024-01-30T16:18:00;8.8;97.6
7455;HTU21D;3769;51.208;4.454;2024-01-30T16:23:00;8.7;97.6
7455;HTU21D;3769;51.208;4.454;2024-01-30T16:28:00;8.7;97.6
7455;HTU21D;3769;51.208;4.454;2024-01-30T16:33:00;8.7;97.6
7455;HTU21D;3769;51.208;4.454;2024-01-30T16:38:00;8.7;97.6
7455;HTU21D;3769;51.208;4.454;2024-01-30T16:43:00;8.6;97.5
7455;HTU21D;3769;51.208;4.454;2024-01-30T16:48:00;8.6;97.5
7455;HTU21D;3769;51.208;4.454;2024-01-30T16:53:00;8.8;97.6
7455;HTU21D;3769;51.208;4.454;2024-01-30T16:58:00;8.7;97.5
7455;HTU21D;3769;51.208;4.454;2024-01-30T17:03:00;8.6;97.5
7455;HTU21D;3769;51.208;4.454;2024-01-30T17:08:00;8.6;97.5
7455;HTU21D;3769;51.208;4.454;2024-01-30T17:13:00;8.8;97.6
7455;HTU21D;3769;51.208;4.454;2024-01-30T17:18:00;8.8;97.6
7455;HTU21D;3769;51.208;4.454;2024-01-30T17:23:00;8.8;97.6
7455;HTU21D;3769;51.208;4.454;2024-01-30T17:28:00;8.6;97.5
7455;HTU21D;3769;51.208;4.454;2024-01-30T17:33:00;8.5;97.5
7455;HTU21D;3769;51.208;4.454;2024-01-30T17:38:00;8.5;97.5
7455;HTU21D;3769;51.208;4.454;2024-01-30T17:43:00;8.5;97.5
7455;HTU21D;3769;51.208;4.454;2024-01-30T17:48:00;8.5;97.5
7455;HTU21D;3769;51.208;4.454;2024-01-30T17:53:00;8.5;97.5
7455;HTU21D;3769;51.208;4.454;2024-01-30T17:58:00;8.6;97.5
7455;HTU21D;3769;51.208;4.454;2024-01-30T18:03:00;8.3;97.5
7455;HTU21D;3769;51.208;4.454;2024-01-30T18:08:00;8.4;97.5
7455;HTU21D;3769;51.208;4.454;2024-01-30T18:13:00;8.5;97.5
7455;HTU21D;3769;51.208;4.454;2024-01-30T18:18:00;8.4;97.5
7455;HTU21D;3769;51.208;4.454;2024-01-30T18:23:00;8.2;97.5
7455;HTU21D;3769;51.208;4.454;2024-01-30T18:28:00;8.2;97.5
7455;HTU21D;3769;51.208;4.454;2024-01-30T18:33:00;8.2;97.5
7455;HTU21D;3769;51.208;4.454;2024-01-30T18:38:00;8.1;97.5
7455;HTU21D;3769;51.208;4.454;2024-01-30T18:43:00;8.1;97.5
7455;HTU21D;3769;51.208;4.454;2024-01-30T18:48:00;8.3;97.5
7455;HTU21D;3769;51.208;4.454;2024-01-30T18:53:00;8.4;97.5
7455;HTU21D;3769;51.208;4.454;2024-01-30T18:58:00;8.2;97.5
7455;HTU21D;3769;51.208;4.454;2024-01-30T19:03:00;8.1;97.5
7455;HTU21D;3769;51.208;4.454;2024-01-30T19:08:00;8.1;97.5
7455;HTU21D;3769;51.208;4.454;2024-01-30T19:13:00;8;97.5
7455;HTU21D;3769;51.208;4.454;2024-01-30T19:18:00;8.1;97.5
7455;HTU21D;3769;51.208;4.454;2024-01-30T19:23:00;8.3;97.5
7455;HTU21D;3769;51.208;4.454;2024-01-30T19:28:00;8.1;97.5
7455;HTU21D;3769;51.208;4.454;2024-01-30T19:33:00;8.1;97.5
7455;HTU21D;3769;51.208;4.454;2024-01-30T19:38:00;8;97.5
7455;HTU21D;3769;51.208;4.454;2024-01-30T19:43:00;8.1;97.5
7455;HTU21D;3769;51.208;4.454;2024-01-30T19:48:00;8.3;97.5
7455;HTU21D;3769;51.208;4.454;2024-01-30T19:53:00;8;97.5
7455;HTU21D;3769;51.208;4.454;2024-01-30T19:58:00;7.9;97.4
7455;HTU21D;3769;51.208;4.454;2024-01-30T20:03:00;8.1;97.5
7455;HTU21D;3769;51.208;4.454;2024-01-30T20:08:00;8.2;97.5
7455;HTU21D;3769;51.208;4.454;2024-01-30T20:13:00;8.2;97.5
7455;HTU21D;3769;51.208;4.454;2024-01-30T20:18:00;8.2;97.5
7455;HTU21D;3769;51.208;4.454;2024-01-30T20:23:00;8.1;97.5
7455;HTU21D;3769;51.208;4.454;2024-01-30T20:28:00;8.2;97.5
7455;HTU21D;3769;51.208;4.454;2024-01-30T20:33:00;8.2;97.5
7455;HTU21D;3769;51.208;4.454;2024-01-30T20:38:00;8.1;97.5
7455;HTU21D;3769;51.208;4.454;2024-01-30T20:43:00;7.9;97.4
7455;HTU21D;3769;51.208;4.454;2024-01-30T20:48:00;8.2;97.5
7455;HTU21D;3769;51.208;4.454;2024-01-30T20:53:00;8.1;97.5
7455;HTU21D;3769;51.208;4.454;2024-01-30T20:58:00;8.2;97.5
7455;HTU21D;3769;51.208;4.454;2024-01-30T21:03:00;8.1;97.5
7455;HTU21D;3769;51.208;4.454;2024-01-30T21:08:00;8.2;97.5
7455;HTU21D;3769;51.208;4.454;2024-01-30T21:13:00;8;97.5
7455;HTU21D;3769;51.208;4.454;2024-01-30T21:18:00;7.9;97.4
7455;HTU21D;3769;51.208;4.454;2024-01-30T21:23:00;7.8;97.4
7455;HTU21D;3769;51.208;4.454;2024-01-30T21:28:00;7.9;97.4
7455;HTU21D;3769;51.208;4.454;2024-01-30T21:33:00;7.8;97.4
7455;HTU21D;3769;51.208;4.454;2024-01-30T21:38:01;7.7;97.4
7455;HTU21D;3769;51.208;4.454;2024-01-30T21:43:00;7.6;97.4
7455;HTU21D;3769;51.208;4.454;2024-01-30T21:48:00;7.7;97.4
7455;HTU21D;3769;51.208;4.454;2024-01-30T21:53:00;7.7;97.4
7455;HTU21D;3769;51.208;4.454;2024-01-30T21:58:00;7.8;97.4
7455;HTU21D;3769;51.208;4.454;2024-01-30T22:03:00;7.8;97.4
7455;HTU21D;3769;51.208;4.454;2024-01-30T22:08:00;7.9;97.4
7455;HTU21D;3769;51.208;4.454;2024-01-30T22:13:00;8;97.5
7455;HTU21D;3769;51.208;4.454;2024-01-30T22:18:00;8.2;97.5
7455;HTU21D;3769;51.208;4.454;2024-01-30T22:23:00;7.9;97.4
7455;HTU21D;3769;51.208;4.454;2024-01-30T22:28:00;7.9;97.4
7455;HTU21D;3769;51.208;4.454;2024-01-30T22:33:00;7.9;97.4
7455;HTU21D;3769;51.208;4.454;2024-01-30T22:38:00;8.2;97.5
7455;HTU21D;3769;51.208;4.454;2024-01-30T22:43:00;7.9;97.4
7455;HTU21D;3769;51.208;4.454;2024-01-30T22:48:00;8.1;97.5
7455;HTU21D;3769;51.208;4.454;2024-01-30T22:53:00;7.9;97.4
7455;HTU21D;3769;51.208;4.454;2024-01-30T22:58:00;8;97.4
7455;HTU21D;3769;51.208;4.454;2024-01-30T23:03:00;8;97.4
7455;HTU21D;3769;51.208;4.454;2024-01-30T23:08:00;8.2;97.5
7455;HTU21D;3769;51.208;4.454;2024-01-30T23:13:00;8;97.4
7455;HTU21D;3769;51.208;4.454;2024-01-30T23:18:00;8.2;97.5
7455;HTU21D;3769;51.208;4.454;2024-01-30T23:23:00;8;97.5
7455;HTU21D;3769;51.208;4.454;2024-01-30T23:28:00;8;97.5
7455;HTU21D;3769;51.208;4.454;2024-01-30T23:33:00;8;97.4
7455;HTU21D;3769;51.208;4.454;2024-01-30T23:38:00;8.2;97.5
7455;HTU21D;3769;51.208;4.454;2024-01-30T23:43:00;8.3;97.5
7455;HTU21D;3769;51.208;4.454;2024-01-30T23:48:00;8.2;97.5
7455;HTU21D;3769;51.208;4.454;2024-01-30T23:53:00;8.1;97.5
7455;HTU21D;3769;51.208;4.454;2024-01-30T23:58:00;8.1;97.5
